sensor_id;sensor_type;location;lat;lon;timestamp;temperature;humidity
55313;DHT22;46892;45.668;11.756;2022-07-04T00:00:12;24.30;70.00
55313;DHT22;46892;45.668;11.756;2022-07-04T00:02:40;24.30;70.10
55313;DHT22;46892;45.668;11.756;2022-07-04T00:05:06;24.40;70.90
55313;DHT22;46892;45.668;11.756;2022-07-04T00:07:39;24.50;72.40
55313;DHT22;46892;45.668;11.756;2022-07-04T00:10:06;24.70;70.70
55313;DHT22;46892;45.668;11.756;2022-07-04T00:12:31;24.70;68.30
55313;DHT22;46892;45.668;11.756;2022-07-04T00:14:57;24.70;69.80
55313;DHT22;46892;45.668;11.756;2022-07-04T00:17:23;24.80;70.40
55313;DHT22;46892;45.668;11.756;2022-07-04T00:19:48;24.70;71.30
55313;DHT22;46892;45.668;11.756;2022-07-04T00:22:14;24.80;70.50
55313;DHT22;46892;45.668;11.756;2022-07-04T00:24:40;24.70;70.10
55313;DHT22;46892;45.668;11.756;2022-07-04T00:27:05;24.80;71.30
55313;DHT22;46892;45.668;11.756;2022-07-04T00:29:31;24.70;70.30
55313;DHT22;46892;45.668;11.756;2022-07-04T00:31:59;24.80;68.50
55313;DHT22;46892;45.668;11.756;2022-07-04T00:34:24;24.70;68.60
55313;DHT22;46892;45.668;11.756;2022-07-04T00:36:50;24.60;70.40
55313;DHT22;46892;45.668;11.756;2022-07-04T00:39:16;24.60;70.60
55313;DHT22;46892;45.668;11.756;2022-07-04T00:41:42;24.50;67.40
55313;DHT22;46892;45.668;11.756;2022-07-04T00:44:09;24.30;69.90
55313;DHT22;46892;45.668;11.756;2022-07-04T00:46:35;24.40;69.60
55313;DHT22;46892;45.668;11.756;2022-07-04T00:49:03;24.50;70.70
55313;DHT22;46892;45.668;11.756;2022-07-04T00:51:29;24.50;70.90
55313;DHT22;46892;45.668;11.756;2022-07-04T00:53:55;24.50;70.20
55313;DHT22;46892;45.668;11.756;2022-07-04T00:56:22;24.60;70.60
55313;DHT22;46892;45.668;11.756;2022-07-04T00:58:48;24.60;68.20
55313;DHT22;46892;45.668;11.756;2022-07-04T01:01:14;24.60;69.90
55313;DHT22;46892;45.668;11.756;2022-07-04T01:03:40;24.60;70.80
55313;DHT22;46892;45.668;11.756;2022-07-04T01:06:06;24.60;70.60
55313;DHT22;46892;45.668;11.756;2022-07-04T01:08:41;24.60;69.70
55313;DHT22;46892;45.668;11.756;2022-07-04T01:11:08;24.70;71.50
55313;DHT22;46892;45.668;11.756;2022-07-04T01:13:34;24.60;66.70
55313;DHT22;46892;45.668;11.756;2022-07-04T01:16:00;24.40;64.00
55313;DHT22;46892;45.668;11.756;2022-07-04T01:18:26;24.50;63.20
55313;DHT22;46892;45.668;11.756;2022-07-04T01:20:51;24.60;63.30
55313;DHT22;46892;45.668;11.756;2022-07-04T01:23:17;24.70;67.60
55313;DHT22;46892;45.668;11.756;2022-07-04T01:25:43;24.80;68.40
55313;DHT22;46892;45.668;11.756;2022-07-04T01:28:09;24.70;67.70
55313;DHT22;46892;45.668;11.756;2022-07-04T01:30:36;24.60;70.50
55313;DHT22;46892;45.668;11.756;2022-07-04T01:33:03;24.60;71.50
55313;DHT22;46892;45.668;11.756;2022-07-04T01:35:29;24.60;72.00
55313;DHT22;46892;45.668;11.756;2022-07-04T01:37:55;24.60;72.70
55313;DHT22;46892;45.668;11.756;2022-07-04T01:40:20;24.50;71.50
55313;DHT22;46892;45.668;11.756;2022-07-04T01:42:46;24.50;70.30
55313;DHT22;46892;45.668;11.756;2022-07-04T01:45:12;24.40;70.20
55313;DHT22;46892;45.668;11.756;2022-07-04T01:47:39;24.40;69.60
55313;DHT22;46892;45.668;11.756;2022-07-04T01:50:06;24.40;69.20
55313;DHT22;46892;45.668;11.756;2022-07-04T01:52:32;24.30;67.60
55313;DHT22;46892;45.668;11.756;2022-07-04T01:54:58;24.20;65.30
55313;DHT22;46892;45.668;11.756;2022-07-04T01:57:24;24.20;65.00
55313;DHT22;46892;45.668;11.756;2022-07-04T01:59:50;24.20;65.10
55313;DHT22;46892;45.668;11.756;2022-07-04T02:02:34;24.40;65.70
55313;DHT22;46892;45.668;11.756;2022-07-04T02:04:59;24.60;68.20
55313;DHT22;46892;45.668;11.756;2022-07-04T02:07:25;24.60;67.70
55313;DHT22;46892;45.668;11.756;2022-07-04T02:09:51;24.70;66.60
55313;DHT22;46892;45.668;11.756;2022-07-04T02:12:17;24.70;67.00
55313;DHT22;46892;45.668;11.756;2022-07-04T02:15:02;24.70;67.30
55313;DHT22;46892;45.668;11.756;2022-07-04T02:17:28;24.50;64.60
55313;DHT22;46892;45.668;11.756;2022-07-04T02:19:53;24.50;63.90
55313;DHT22;46892;45.668;11.756;2022-07-04T02:22:19;24.50;60.60
55313;DHT22;46892;45.668;11.756;2022-07-04T02:24:44;24.60;59.20
55313;DHT22;46892;45.668;11.756;2022-07-04T02:27:10;24.70;59.70
55313;DHT22;46892;45.668;11.756;2022-07-04T02:29:36;24.90;61.00
55313;DHT22;46892;45.668;11.756;2022-07-04T02:32:02;25.00;62.50
55313;DHT22;46892;45.668;11.756;2022-07-04T02:34:29;25.00;62.00
55313;DHT22;46892;45.668;11.756;2022-07-04T02:36:54;25.10;61.40
55313;DHT22;46892;45.668;11.756;2022-07-04T02:39:20;25.10;61.30
55313;DHT22;46892;45.668;11.756;2022-07-04T02:41:46;25.10;60.90
55313;DHT22;46892;45.668;11.756;2022-07-04T02:44:11;25.20;60.90
55313;DHT22;46892;45.668;11.756;2022-07-04T02:46:37;25.20;61.10
55313;DHT22;46892;45.668;11.756;2022-07-04T02:49:03;25.20;61.70
55313;DHT22;46892;45.668;11.756;2022-07-04T02:51:30;25.30;62.00
55313;DHT22;46892;45.668;11.756;2022-07-04T02:53:56;25.30;62.90
55313;DHT22;46892;45.668;11.756;2022-07-04T02:56:21;25.20;63.40
55313;DHT22;46892;45.668;11.756;2022-07-04T02:58:47;25.20;66.00
55313;DHT22;46892;45.668;11.756;2022-07-04T03:01:13;25.20;65.40
55313;DHT22;46892;45.668;11.756;2022-07-04T03:03:39;25.20;64.40
55313;DHT22;46892;45.668;11.756;2022-07-04T03:06:06;25.20;62.70
55313;DHT22;46892;45.668;11.756;2022-07-04T03:08:32;25.10;64.10
55313;DHT22;46892;45.668;11.756;2022-07-04T03:10:59;25.00;61.30
55313;DHT22;46892;45.668;11.756;2022-07-04T03:13:24;25.00;63.00
55313;DHT22;46892;45.668;11.756;2022-07-04T03:15:50;25.10;63.00
55313;DHT22;46892;45.668;11.756;2022-07-04T03:18:16;25.10;65.80
55313;DHT22;46892;45.668;11.756;2022-07-04T03:20:42;25.10;65.60
55313;DHT22;46892;45.668;11.756;2022-07-04T03:23:08;25.10;66.10
55313;DHT22;46892;45.668;11.756;2022-07-04T03:25:34;25.00;64.70
55313;DHT22;46892;45.668;11.756;2022-07-04T03:27:59;25.10;66.50
55313;DHT22;46892;45.668;11.756;2022-07-04T03:30:25;24.90;64.30
55313;DHT22;46892;45.668;11.756;2022-07-04T03:32:51;24.80;60.90
55313;DHT22;46892;45.668;11.756;2022-07-04T03:35:16;24.70;58.30
55313;DHT22;46892;45.668;11.756;2022-07-04T03:37:42;24.70;61.50
55313;DHT22;46892;45.668;11.756;2022-07-04T03:40:08;24.60;62.50
55313;DHT22;46892;45.668;11.756;2022-07-04T03:42:34;24.50;63.30
55313;DHT22;46892;45.668;11.756;2022-07-04T03:45:00;24.30;65.00
55313;DHT22;46892;45.668;11.756;2022-07-04T03:47:25;24.30;64.50
55313;DHT22;46892;45.668;11.756;2022-07-04T03:49:51;24.40;66.90
55313;DHT22;46892;45.668;11.756;2022-07-04T03:52:17;24.50;64.70
55313;DHT22;46892;45.668;11.756;2022-07-04T03:54:43;24.40;65.20
55313;DHT22;46892;45.668;11.756;2022-07-04T03:57:08;24.50;68.10
55313;DHT22;46892;45.668;11.756;2022-07-04T03:59:34;24.40;68.70
55313;DHT22;46892;45.668;11.756;2022-07-04T04:02:00;24.30;67.30
55313;DHT22;46892;45.668;11.756;2022-07-04T04:04:25;24.30;68.20
55313;DHT22;46892;45.668;11.756;2022-07-04T04:07:10;24.30;67.80
55313;DHT22;46892;45.668;11.756;2022-07-04T04:09:35;24.30;68.10
55313;DHT22;46892;45.668;11.756;2022-07-04T04:12:01;24.30;68.60
55313;DHT22;46892;45.668;11.756;2022-07-04T04:14:27;24.20;68.20
55313;DHT22;46892;45.668;11.756;2022-07-04T04:16:53;24.00;68.80
55313;DHT22;46892;45.668;11.756;2022-07-04T04:19:19;24.00;66.90
55313;DHT22;46892;45.668;11.756;2022-07-04T04:21:45;24.00;67.00
55313;DHT22;46892;45.668;11.756;2022-07-04T04:24:10;23.90;68.10
55313;DHT22;46892;45.668;11.756;2022-07-04T04:26:36;23.90;68.80
55313;DHT22;46892;45.668;11.756;2022-07-04T04:29:02;24.00;69.80
55313;DHT22;46892;45.668;11.756;2022-07-04T04:31:28;24.00;70.10
55313;DHT22;46892;45.668;11.756;2022-07-04T04:33:54;24.00;68.20
55313;DHT22;46892;45.668;11.756;2022-07-04T04:36:19;24.10;69.90
55313;DHT22;46892;45.668;11.756;2022-07-04T04:38:45;24.00;68.90
55313;DHT22;46892;45.668;11.756;2022-07-04T04:41:11;24.10;69.60
55313;DHT22;46892;45.668;11.756;2022-07-04T04:43:37;24.20;70.20
55313;DHT22;46892;45.668;11.756;2022-07-04T04:46:02;24.20;68.30
55313;DHT22;46892;45.668;11.756;2022-07-04T04:48:28;24.40;68.80
55313;DHT22;46892;45.668;11.756;2022-07-04T04:50:53;24.60;69.00
55313;DHT22;46892;45.668;11.756;2022-07-04T04:53:19;24.80;69.40
55313;DHT22;46892;45.668;11.756;2022-07-04T04:55:48;25.00;69.30
55313;DHT22;46892;45.668;11.756;2022-07-04T04:58:13;25.20;63.90
55313;DHT22;46892;45.668;11.756;2022-07-04T05:00:39;25.20;65.50
55313;DHT22;46892;45.668;11.756;2022-07-04T05:03:05;25.40;67.20
55313;DHT22;46892;45.668;11.756;2022-07-04T05:05:30;25.60;67.80
55313;DHT22;46892;45.668;11.756;2022-07-04T05:07:56;25.70;68.20
55313;DHT22;46892;45.668;11.756;2022-07-04T05:10:22;25.80;69.20
55313;DHT22;46892;45.668;11.756;2022-07-04T05:12:47;25.80;67.90
55313;DHT22;46892;45.668;11.756;2022-07-04T05:15:13;25.90;66.80
55313;DHT22;46892;45.668;11.756;2022-07-04T05:17:39;26.00;66.20
55313;DHT22;46892;45.668;11.756;2022-07-04T05:20:05;26.20;65.70
55313;DHT22;46892;45.668;11.756;2022-07-04T05:22:30;26.30;65.30
55313;DHT22;46892;45.668;11.756;2022-07-04T05:24:56;26.50;62.80
55313;DHT22;46892;45.668;11.756;2022-07-04T05:27:22;26.70;61.50
55313;DHT22;46892;45.668;11.756;2022-07-04T05:29:47;26.80;61.20
55313;DHT22;46892;45.668;11.756;2022-07-04T05:32:13;27.00;61.40
55313;DHT22;46892;45.668;11.756;2022-07-04T05:34:38;27.10;60.10
55313;DHT22;46892;45.668;11.756;2022-07-04T05:37:04;27.20;58.30
55313;DHT22;46892;45.668;11.756;2022-07-04T05:39:30;27.30;56.40
55313;DHT22;46892;45.668;11.756;2022-07-04T05:41:56;27.40;56.30
55313;DHT22;46892;45.668;11.756;2022-07-04T05:44:22;27.50;56.50
55313;DHT22;46892;45.668;11.756;2022-07-04T05:46:48;27.70;56.00
55313;DHT22;46892;45.668;11.756;2022-07-04T05:49:14;27.80;56.00
55313;DHT22;46892;45.668;11.756;2022-07-04T05:51:39;27.90;55.50
55313;DHT22;46892;45.668;11.756;2022-07-04T05:54:05;28.00;56.50
55313;DHT22;46892;45.668;11.756;2022-07-04T05:56:30;28.10;54.80
55313;DHT22;46892;45.668;11.756;2022-07-04T05:58:56;28.20;53.50
55313;DHT22;46892;45.668;11.756;2022-07-04T06:01:22;28.30;52.60
55313;DHT22;46892;45.668;11.756;2022-07-04T06:03:49;28.40;52.10
55313;DHT22;46892;45.668;11.756;2022-07-04T06:06:14;28.50;56.30
55313;DHT22;46892;45.668;11.756;2022-07-04T06:08:42;28.60;53.50
55313;DHT22;46892;45.668;11.756;2022-07-04T06:11:08;28.70;54.40
55313;DHT22;46892;45.668;11.756;2022-07-04T06:13:33;28.80;53.90
55313;DHT22;46892;45.668;11.756;2022-07-04T06:15:59;28.90;49.80
55313;DHT22;46892;45.668;11.756;2022-07-04T06:18:24;29.00;51.70
55313;DHT22;46892;45.668;11.756;2022-07-04T06:20:50;29.10;49.20
55313;DHT22;46892;45.668;11.756;2022-07-04T06:23:16;29.10;49.10
55313;DHT22;46892;45.668;11.756;2022-07-04T06:25:42;29.20;49.90
55313;DHT22;46892;45.668;11.756;2022-07-04T06:28:07;29.20;48.70
55313;DHT22;46892;45.668;11.756;2022-07-04T06:30:34;29.30;50.20
55313;DHT22;46892;45.668;11.756;2022-07-04T06:33:00;29.30;50.80
55313;DHT22;46892;45.668;11.756;2022-07-04T06:35:28;29.40;49.40
55313;DHT22;46892;45.668;11.756;2022-07-04T06:38:20;29.40;48.90
55313;DHT22;46892;45.668;11.756;2022-07-04T06:40:48;29.40;47.40
55313;DHT22;46892;45.668;11.756;2022-07-04T06:43:14;29.50;48.30
55313;DHT22;46892;45.668;11.756;2022-07-04T06:45:40;29.60;48.90
55313;DHT22;46892;45.668;11.756;2022-07-04T06:48:06;29.70;50.30
55313;DHT22;46892;45.668;11.756;2022-07-04T06:50:33;29.80;47.60
55313;DHT22;46892;45.668;11.756;2022-07-04T06:53:03;29.90;50.10
55313;DHT22;46892;45.668;11.756;2022-07-04T06:55:29;30.00;47.20
55313;DHT22;46892;45.668;11.756;2022-07-04T06:57:55;30.20;44.90
55313;DHT22;46892;45.668;11.756;2022-07-04T07:00:21;30.20;47.50
55313;DHT22;46892;45.668;11.756;2022-07-04T07:02:46;30.30;46.00
55313;DHT22;46892;45.668;11.756;2022-07-04T07:05:12;30.40;47.70
55313;DHT22;46892;45.668;11.756;2022-07-04T07:07:38;30.40;47.30
55313;DHT22;46892;45.668;11.756;2022-07-04T07:10:04;30.50;48.50
55313;DHT22;46892;45.668;11.756;2022-07-04T07:12:32;30.50;48.50
55313;DHT22;46892;45.668;11.756;2022-07-04T07:14:58;30.60;48.60
55313;DHT22;46892;45.668;11.756;2022-07-04T07:17:23;30.60;48.50
55313;DHT22;46892;45.668;11.756;2022-07-04T07:19:49;30.70;45.50
55313;DHT22;46892;45.668;11.756;2022-07-04T07:22:15;30.70;48.20
55313;DHT22;46892;45.668;11.756;2022-07-04T07:24:42;30.70;44.70
55313;DHT22;46892;45.668;11.756;2022-07-04T07:27:08;30.80;47.90
55313;DHT22;46892;45.668;11.756;2022-07-04T07:29:35;30.80;48.40
55313;DHT22;46892;45.668;11.756;2022-07-04T07:32:01;30.80;45.00
55313;DHT22;46892;45.668;11.756;2022-07-04T07:34:27;30.90;45.60
55313;DHT22;46892;45.668;11.756;2022-07-04T07:36:53;31.00;47.10
55313;DHT22;46892;45.668;11.756;2022-07-04T07:39:19;31.00;47.90
55313;DHT22;46892;45.668;11.756;2022-07-04T07:41:46;31.10;51.50
55313;DHT22;46892;45.668;11.756;2022-07-04T07:44:11;31.20;52.50
55313;DHT22;46892;45.668;11.756;2022-07-04T07:46:37;31.20;53.50
55313;DHT22;46892;45.668;11.756;2022-07-04T07:49:03;31.50;50.60
55313;DHT22;46892;45.668;11.756;2022-07-04T07:51:29;31.70;44.40
55313;DHT22;46892;45.668;11.756;2022-07-04T07:53:55;31.70;43.30
55313;DHT22;46892;45.668;11.756;2022-07-04T07:56:21;31.70;44.20
55313;DHT22;46892;45.668;11.756;2022-07-04T07:58:48;31.70;45.00
55313;DHT22;46892;45.668;11.756;2022-07-04T08:01:14;31.80;43.90
55313;DHT22;46892;45.668;11.756;2022-07-04T08:03:39;32.10;42.40
55313;DHT22;46892;45.668;11.756;2022-07-04T08:06:24;32.30;39.40
55313;DHT22;46892;45.668;11.756;2022-07-04T08:08:49;32.50;39.90
55313;DHT22;46892;45.668;11.756;2022-07-04T08:11:16;32.70;43.60
55313;DHT22;46892;45.668;11.756;2022-07-04T08:13:42;32.90;42.40
55313;DHT22;46892;45.668;11.756;2022-07-04T08:16:08;32.90;40.10
55313;DHT22;46892;45.668;11.756;2022-07-04T08:18:34;32.90;43.60
55313;DHT22;46892;45.668;11.756;2022-07-04T08:21:00;33.00;39.40
55313;DHT22;46892;45.668;11.756;2022-07-04T08:23:27;33.00;42.10
55313;DHT22;46892;45.668;11.756;2022-07-04T08:25:53;33.20;44.60
55313;DHT22;46892;45.668;11.756;2022-07-04T08:28:18;33.30;41.20
55313;DHT22;46892;45.668;11.756;2022-07-04T08:30:44;33.40;40.20
55313;DHT22;46892;45.668;11.756;2022-07-04T08:33:10;33.40;42.00
55313;DHT22;46892;45.668;11.756;2022-07-04T08:35:36;33.40;40.50
55313;DHT22;46892;45.668;11.756;2022-07-04T08:38:01;33.40;42.20
55313;DHT22;46892;45.668;11.756;2022-07-04T08:40:29;33.50;40.90
55313;DHT22;46892;45.668;11.756;2022-07-04T08:42:55;33.40;38.80
55313;DHT22;46892;45.668;11.756;2022-07-04T08:45:30;33.30;37.40
55313;DHT22;46892;45.668;11.756;2022-07-04T08:48:01;33.20;36.50
55313;DHT22;46892;45.668;11.756;2022-07-04T08:50:33;33.20;38.90
55313;DHT22;46892;45.668;11.756;2022-07-04T08:53:06;33.00;39.20
55313;DHT22;46892;45.668;11.756;2022-07-04T08:55:32;33.10;37.50
55313;DHT22;46892;45.668;11.756;2022-07-04T08:58:18;33.10;37.10
55313;DHT22;46892;45.668;11.756;2022-07-04T09:00:57;33.10;38.60
55313;DHT22;46892;45.668;11.756;2022-07-04T09:03:24;33.10;38.60
55313;DHT22;46892;45.668;11.756;2022-07-04T09:05:50;33.00;37.70
55313;DHT22;46892;45.668;11.756;2022-07-04T09:08:16;32.90;40.80
55313;DHT22;46892;45.668;11.756;2022-07-04T09:10:42;32.90;39.90
55313;DHT22;46892;45.668;11.756;2022-07-04T09:13:09;32.90;37.50
55313;DHT22;46892;45.668;11.756;2022-07-04T09:15:35;32.80;39.30
55313;DHT22;46892;45.668;11.756;2022-07-04T09:18:01;32.80;37.80
55313;DHT22;46892;45.668;11.756;2022-07-04T09:20:30;32.80;39.80
55313;DHT22;46892;45.668;11.756;2022-07-04T09:22:56;32.80;37.30
55313;DHT22;46892;45.668;11.756;2022-07-04T09:25:23;32.70;36.20
55313;DHT22;46892;45.668;11.756;2022-07-04T09:27:51;32.70;37.80
55313;DHT22;46892;45.668;11.756;2022-07-04T09:30:24;32.80;36.80
55313;DHT22;46892;45.668;11.756;2022-07-04T09:32:51;32.70;36.90
55313;DHT22;46892;45.668;11.756;2022-07-04T09:35:22;32.80;37.50
55313;DHT22;46892;45.668;11.756;2022-07-04T09:40:32;32.70;38.50
55313;DHT22;46892;45.668;11.756;2022-07-04T09:43:00;32.70;36.50
55313;DHT22;46892;45.668;11.756;2022-07-04T09:45:26;32.70;40.00
55313;DHT22;46892;45.668;11.756;2022-07-04T09:47:55;32.60;40.60
55313;DHT22;46892;45.668;11.756;2022-07-04T09:50:22;32.50;37.70
55313;DHT22;46892;45.668;11.756;2022-07-04T09:52:56;32.30;39.60
55313;DHT22;46892;45.668;11.756;2022-07-04T09:57:48;32.40;39.80
55313;DHT22;46892;45.668;11.756;2022-07-04T10:00:21;32.60;42.30
55313;DHT22;46892;45.668;11.756;2022-07-04T10:02:48;32.90;41.80
55313;DHT22;46892;45.668;11.756;2022-07-04T10:05:21;33.00;38.50
55313;DHT22;46892;45.668;11.756;2022-07-04T10:07:47;33.10;40.80
55313;DHT22;46892;45.668;11.756;2022-07-04T10:10:36;33.00;42.10
55313;DHT22;46892;45.668;11.756;2022-07-04T10:13:09;32.80;40.10
55313;DHT22;46892;45.668;11.756;2022-07-04T10:15:38;32.80;44.90
55313;DHT22;46892;45.668;11.756;2022-07-04T10:18:06;32.80;43.70
55313;DHT22;46892;45.668;11.756;2022-07-04T10:20:32;32.80;37.70
55313;DHT22;46892;45.668;11.756;2022-07-04T10:23:00;32.80;41.80
55313;DHT22;46892;45.668;11.756;2022-07-04T10:25:26;32.80;45.80
55313;DHT22;46892;45.668;11.756;2022-07-04T10:27:52;32.70;49.10
55313;DHT22;46892;45.668;11.756;2022-07-04T10:30:29;32.60;43.10
55313;DHT22;46892;45.668;11.756;2022-07-04T10:32:57;32.50;43.30
55313;DHT22;46892;45.668;11.756;2022-07-04T10:38:11;32.40;47.20
55313;DHT22;46892;45.668;11.756;2022-07-04T10:40:51;32.30;48.90
55313;DHT22;46892;45.668;11.756;2022-07-04T10:48:32;32.10;44.90
55313;DHT22;46892;45.668;11.756;2022-07-04T10:51:05;32.00;45.60
55313;DHT22;46892;45.668;11.756;2022-07-04T10:53:32;32.00;43.60
55313;DHT22;46892;45.668;11.756;2022-07-04T10:58:46;31.80;46.90
55313;DHT22;46892;45.668;11.756;2022-07-04T11:01:14;31.90;47.00
55313;DHT22;46892;45.668;11.756;2022-07-04T11:03:48;31.80;47.20
55313;DHT22;46892;45.668;11.756;2022-07-04T11:09:19;31.90;48.00
55313;DHT22;46892;45.668;11.756;2022-07-04T11:14:40;31.80;48.00
55313;DHT22;46892;45.668;11.756;2022-07-04T11:17:27;31.80;49.60
55313;DHT22;46892;45.668;11.756;2022-07-04T11:20:03;31.70;46.80
55313;DHT22;46892;45.668;11.756;2022-07-04T11:22:29;31.80;46.60
55313;DHT22;46892;45.668;11.756;2022-07-04T11:24:56;31.90;43.20
55313;DHT22;46892;45.668;11.756;2022-07-04T11:27:22;31.90;42.00
55313;DHT22;46892;45.668;11.756;2022-07-04T11:29:55;32.10;43.20
55313;DHT22;46892;45.668;11.756;2022-07-04T11:32:29;32.20;43.00
55313;DHT22;46892;45.668;11.756;2022-07-04T11:34:55;32.20;41.90
55313;DHT22;46892;45.668;11.756;2022-07-04T11:37:22;32.20;42.90
55313;DHT22;46892;45.668;11.756;2022-07-04T11:39:54;32.20;39.10
55313;DHT22;46892;45.668;11.756;2022-07-04T11:42:39;32.30;39.60
55313;DHT22;46892;45.668;11.756;2022-07-04T11:45:23;32.20;38.60
55313;DHT22;46892;45.668;11.756;2022-07-04T11:47:49;32.20;40.40
55313;DHT22;46892;45.668;11.756;2022-07-04T11:50:16;32.20;39.80
55313;DHT22;46892;45.668;11.756;2022-07-04T11:52:48;32.20;43.00
55313;DHT22;46892;45.668;11.756;2022-07-04T11:55:18;32.20;42.40
55313;DHT22;46892;45.668;11.756;2022-07-04T11:57:49;32.20;44.90
55313;DHT22;46892;45.668;11.756;2022-07-04T12:00:19;32.30;44.50
55313;DHT22;46892;45.668;11.756;2022-07-04T12:02:46;32.50;41.70
55313;DHT22;46892;45.668;11.756;2022-07-04T12:05:13;32.70;42.30
55313;DHT22;46892;45.668;11.756;2022-07-04T12:07:41;32.70;43.00
55313;DHT22;46892;45.668;11.756;2022-07-04T12:15:20;31.80;41.30
55313;DHT22;46892;45.668;11.756;2022-07-04T12:17:53;31.70;39.60
55313;DHT22;46892;45.668;11.756;2022-07-04T12:20:21;31.70;39.20
55313;DHT22;46892;45.668;11.756;2022-07-04T12:22:52;31.70;39.90
55313;DHT22;46892;45.668;11.756;2022-07-04T12:25:40;31.70;41.00
55313;DHT22;46892;45.668;11.756;2022-07-04T12:28:10;31.60;41.60
55313;DHT22;46892;45.668;11.756;2022-07-04T12:30:38;31.70;39.90
55313;DHT22;46892;45.668;11.756;2022-07-04T12:33:08;31.70;40.70
55313;DHT22;46892;45.668;11.756;2022-07-04T12:40:54;32.20;38.70
55313;DHT22;46892;45.668;11.756;2022-07-04T12:43:21;32.20;38.20
55313;DHT22;46892;45.668;11.756;2022-07-04T12:45:54;32.00;37.70
55313;DHT22;46892;45.668;11.756;2022-07-04T12:48:28;32.00;38.30
55313;DHT22;46892;45.668;11.756;2022-07-04T12:51:08;32.00;38.40
55313;DHT22;46892;45.668;11.756;2022-07-04T12:53:39;32.10;37.20
55313;DHT22;46892;45.668;11.756;2022-07-04T12:56:05;32.00;37.20
55313;DHT22;46892;45.668;11.756;2022-07-04T12:58:31;31.90;36.60
55313;DHT22;46892;45.668;11.756;2022-07-04T13:00:57;31.80;38.00
55313;DHT22;46892;45.668;11.756;2022-07-04T13:03:22;31.80;37.60
55313;DHT22;46892;45.668;11.756;2022-07-04T13:05:49;31.80;40.20
55313;DHT22;46892;45.668;11.756;2022-07-04T13:08:15;31.80;37.70
55313;DHT22;46892;45.668;11.756;2022-07-04T13:10:41;31.90;40.00
55313;DHT22;46892;45.668;11.756;2022-07-04T13:13:07;31.80;37.80
55313;DHT22;46892;45.668;11.756;2022-07-04T13:15:33;31.80;38.10
55313;DHT22;46892;45.668;11.756;2022-07-04T13:17:59;31.80;39.30
55313;DHT22;46892;45.668;11.756;2022-07-04T13:20:25;32.00;39.40
55313;DHT22;46892;45.668;11.756;2022-07-04T13:22:51;32.20;40.40
55313;DHT22;46892;45.668;11.756;2022-07-04T13:25:18;32.20;38.70
55313;DHT22;46892;45.668;11.756;2022-07-04T13:27:43;32.30;37.90
55313;DHT22;46892;45.668;11.756;2022-07-04T13:30:09;32.30;39.70
55313;DHT22;46892;45.668;11.756;2022-07-04T13:32:36;32.30;37.30
55313;DHT22;46892;45.668;11.756;2022-07-04T13:35:02;32.30;36.70
55313;DHT22;46892;45.668;11.756;2022-07-04T13:37:28;32.40;39.20
55313;DHT22;46892;45.668;11.756;2022-07-04T13:39:54;32.40;38.70
55313;DHT22;46892;45.668;11.756;2022-07-04T13:42:20;32.40;36.30
55313;DHT22;46892;45.668;11.756;2022-07-04T13:45:06;32.40;39.60
55313;DHT22;46892;45.668;11.756;2022-07-04T13:47:31;32.30;39.20
55313;DHT22;46892;45.668;11.756;2022-07-04T13:49:57;32.50;36.00
55313;DHT22;46892;45.668;11.756;2022-07-04T13:52:23;32.50;36.20
55313;DHT22;46892;45.668;11.756;2022-07-04T13:54:48;32.50;37.60
55313;DHT22;46892;45.668;11.756;2022-07-04T13:57:14;32.50;35.60
55313;DHT22;46892;45.668;11.756;2022-07-04T13:59:40;32.60;35.10
55313;DHT22;46892;45.668;11.756;2022-07-04T14:02:06;32.50;35.20
55313;DHT22;46892;45.668;11.756;2022-07-04T14:04:31;32.60;36.30
55313;DHT22;46892;45.668;11.756;2022-07-04T14:06:57;32.60;36.10
55313;DHT22;46892;45.668;11.756;2022-07-04T14:09:23;32.60;35.60
55313;DHT22;46892;45.668;11.756;2022-07-04T14:11:49;32.70;36.20
55313;DHT22;46892;45.668;11.756;2022-07-04T14:14:15;32.70;39.80
55313;DHT22;46892;45.668;11.756;2022-07-04T14:16:40;32.70;35.10
55313;DHT22;46892;45.668;11.756;2022-07-04T14:19:06;32.80;38.00
55313;DHT22;46892;45.668;11.756;2022-07-04T14:21:31;32.80;38.70
55313;DHT22;46892;45.668;11.756;2022-07-04T14:23:57;32.90;35.60
55313;DHT22;46892;45.668;11.756;2022-07-04T14:26:23;33.00;37.40
55313;DHT22;46892;45.668;11.756;2022-07-04T14:28:50;33.00;33.10
55313;DHT22;46892;45.668;11.756;2022-07-04T14:31:16;33.00;34.60
55313;DHT22;46892;45.668;11.756;2022-07-04T14:33:41;33.00;34.60
55313;DHT22;46892;45.668;11.756;2022-07-04T14:36:07;33.00;35.40
55313;DHT22;46892;45.668;11.756;2022-07-04T14:38:34;33.10;35.00
55313;DHT22;46892;45.668;11.756;2022-07-04T14:41:00;33.10;34.50
55313;DHT22;46892;45.668;11.756;2022-07-04T14:43:39;33.20;36.00
55313;DHT22;46892;45.668;11.756;2022-07-04T14:46:05;33.10;36.90
55313;DHT22;46892;45.668;11.756;2022-07-04T14:48:31;33.10;34.60
55313;DHT22;46892;45.668;11.756;2022-07-04T14:50:57;33.10;36.30
55313;DHT22;46892;45.668;11.756;2022-07-04T14:53:22;33.00;35.00
55313;DHT22;46892;45.668;11.756;2022-07-04T14:55:48;33.00;34.20
55313;DHT22;46892;45.668;11.756;2022-07-04T14:58:14;33.00;33.60
55313;DHT22;46892;45.668;11.756;2022-07-04T15:00:40;33.00;34.00
55313;DHT22;46892;45.668;11.756;2022-07-04T15:03:05;33.00;31.90
55313;DHT22;46892;45.668;11.756;2022-07-04T15:05:31;33.00;33.50
55313;DHT22;46892;45.668;11.756;2022-07-04T15:07:57;33.00;34.20
55313;DHT22;46892;45.668;11.756;2022-07-04T15:10:23;33.10;33.50
55313;DHT22;46892;45.668;11.756;2022-07-04T15:12:50;33.20;34.10
55313;DHT22;46892;45.668;11.756;2022-07-04T15:15:15;33.10;34.10
55313;DHT22;46892;45.668;11.756;2022-07-04T15:17:41;33.20;35.00
55313;DHT22;46892;45.668;11.756;2022-07-04T15:20:07;33.10;34.80
55313;DHT22;46892;45.668;11.756;2022-07-04T15:22:52;33.10;35.80
55313;DHT22;46892;45.668;11.756;2022-07-04T15:25:36;33.20;36.80
55313;DHT22;46892;45.668;11.756;2022-07-04T15:28:02;33.10;34.70
55313;DHT22;46892;45.668;11.756;2022-07-04T15:30:28;33.20;37.20
55313;DHT22;46892;45.668;11.756;2022-07-04T15:32:54;33.30;35.40
55313;DHT22;46892;45.668;11.756;2022-07-04T15:35:19;33.30;33.40
55313;DHT22;46892;45.668;11.756;2022-07-04T15:37:45;33.30;35.90
55313;DHT22;46892;45.668;11.756;2022-07-04T15:40:11;33.40;35.30
55313;DHT22;46892;45.668;11.756;2022-07-04T15:42:36;33.50;36.80
55313;DHT22;46892;45.668;11.756;2022-07-04T15:45:02;33.30;36.00
55313;DHT22;46892;45.668;11.756;2022-07-04T15:47:28;33.30;34.40